Aguila, AZ (85320)

8:48 PM MST on May 25, 2015 (GMT -0700)
MesoWest | | Change Station
CLOSE
Current Station
Personal Weather Station
Location: Aguila, AZ
Elevation: 2169 ft
Nearby Weather Stations

Elev 2169 ft 33.94 °N, 113.17 °W | Updated 34 minutes ago

Clear
Clear
81 °F
Feels Like 79 °F
N
6
Wind Variable Wind from SSW
Gusts 7.0 mph

Today
High -- | Low -- °F
--% Chance of Precip.
Yesterday
High -- | Low -- °F
Precip. -- in
5:25 AM 7:34 PM
First Quarter, 54% visible
Pressure 29.78 in
Visibility 10.0 miles
Clouds Clear
Heat Index 79 °F
Dew Point 42 °F
Humidity 25%
Rainfall in
Snow Depth Not available.
UV 0 out of 12
Pollen 5.30 out of 12
Air Quality Not available.
Flu Activity Local Activity
METAR KLUF 260258Z AUTO 22007KT 10SM CLR 29/06 A2981 RMK AO2 SLP083 T02920058 $

More Conditions Fewer Conditions

Pressure 29.78 in
Visibility 10.0 miles
Clouds Clear
Heat Index 79 °F
Dew Point 42 °F
Humidity 25%
Rainfall in
Snow Depth Not available.
UV 0 out of 12
Pollen 5.30 out of 12
Air Quality Not available.
Flu Activity Local Activity
METAR KLUF 260258Z AUTO 22007KT 10SM CLR 29/06 A2981 RMK AO2 SLP083 T02920058 $

More Conditions Fewer Conditions

10-Day Weather Forecast

Almanac

Astronomy

May. 25, 2015 Rise Set
Actual Time
Civil Twilight
Nautical Twilight
Astronomical Twilight
Moon
Length of Visible Light
Length of Day
Tomorrow will be .
, % of the Moon is Illuminated

Today's Extremes

State Highs State Lows

Community

WunderPhotos

Upload Photos

1,824,269 photos uploaded!

WunderBlogs® & News

Nearby

Air Quality

  Air Quality AQ Index Pollutant
Not available.

Snow Depth

Station Depth Elevation

Earthquake Activity

City Distance Mag. Time & Date
Minimum magnitude displayed is 2.5.

Coastal Water Temperatures

Place Temperature

Stations

Nearby Weather Stations

Station Location Temp. Windchill Dew Point Humidity Wind Precip. Elev Updated Type